createdAt,value
2019-03-18T00:01:44.756Z,101084.97
2019-03-18T00:04:15.927Z,101081.83
2019-03-18T00:06:48.746Z,101080.49
2019-03-18T00:09:19.852Z,101083.66
2019-03-18T00:11:50.890Z,101090.26
2019-03-18T00:14:22.044Z,101088.81
2019-03-18T00:16:53.212Z,101096.11
2019-03-18T00:19:24.205Z,101094.66
2019-03-18T00:21:55.295Z,101094.66
2019-03-18T00:24:26.402Z,101091.50
2019-03-18T00:26:57.598Z,101107.72
2019-03-18T00:29:29.177Z,101099.95
2019-03-18T00:32:00.290Z,101097.87
2019-03-18T00:34:31.464Z,101097.48
2019-03-18T00:37:02.755Z,101093.75
2019-03-18T00:39:33.795Z,101098.55
2019-03-18T00:42:04.828Z,101094.91
2019-03-18T00:44:35.873Z,101101.69
2019-03-18T00:47:07.012Z,101099.99
2019-03-18T00:49:38.049Z,101103.06
2019-03-18T00:52:09.095Z,101106.02
2019-03-18T00:54:40.207Z,101113.45
2019-03-18T00:57:11.322Z,101107.64
2019-03-18T00:59:42.386Z,101112.79
2019-03-18T01:02:13.504Z,101116.91
2019-03-18T01:04:44.664Z,101121.39
2019-03-18T01:07:15.799Z,101114.63
2019-03-18T01:09:46.866Z,101124.00
2019-03-18T01:12:17.983Z,101112.04
2019-03-18T01:14:48.983Z,101119.04
2019-03-18T01:17:20.030Z,101124.69
2019-03-18T01:19:51.176Z,101125.27
2019-03-18T01:22:22.254Z,101120.98
2019-03-18T01:24:53.355Z,101118.48
2019-03-18T01:27:25.576Z,101113.85
2019-03-18T01:29:56.762Z,101110.92
2019-03-18T01:32:27.921Z,101106.23
2019-03-18T01:34:59.054Z,101111.66
2019-03-18T01:37:30.319Z,101119.04
2019-03-18T01:40:01.339Z,101121.37
2019-03-18T01:42:32.531Z,101116.69
2019-03-18T01:45:04.625Z,101112.78
2019-03-18T01:47:35.713Z,101111.34
2019-03-18T01:50:16.720Z,101119.03
2019-03-18T01:52:47.752Z,101115.64
2019-03-18T01:55:18.922Z,101118.92
2019-03-18T01:57:50.008Z,101116.08
2019-03-18T02:00:21.024Z,101116.29
2019-03-18T02:02:52.150Z,101117.64
2019-03-18T02:05:23.241Z,101118.19
2019-03-18T02:07:54.367Z,101124.56
2019-03-18T02:10:25.356Z,101123.09
2019-03-18T02:12:56.459Z,101128.47
2019-03-18T02:15:27.504Z,101125.30
2019-03-18T02:17:58.493Z,101126.89
2019-03-18T02:20:29.588Z,101133.55
2019-03-18T02:23:00.630Z,101143.61
2019-03-18T02:25:31.762Z,101144.58
2019-03-18T02:28:03.301Z,101143.19
2019-03-18T02:30:34.361Z,101144.19
2019-03-18T02:33:05.436Z,101150.16
2019-03-18T02:35:36.420Z,101157.55
2019-03-18T02:38:07.633Z,101160.80
2019-03-18T02:40:38.820Z,101166.91
2019-03-18T02:43:09.934Z,101162.63
2019-03-18T02:45:41.015Z,101164.48
2019-03-18T02:48:12.051Z,101170.37
2019-03-18T02:50:43.252Z,101174.02
2019-03-18T02:53:14.340Z,101176.39
2019-03-18T02:55:45.459Z,101172.95
2019-03-18T02:58:16.671Z,101180.97
2019-03-18T03:00:47.666Z,101173.44
2019-03-18T03:03:18.870Z,101175.88
2019-03-18T03:05:49.952Z,101180.05
2019-03-18T03:08:21.049Z,101180.91
2019-03-18T03:10:53.380Z,101181.52
2019-03-18T03:13:24.564Z,101183.06
2019-03-18T03:15:55.675Z,101184.67
2019-03-18T03:18:26.760Z,101180.80
2019-03-18T03:20:57.789Z,101186.25
2019-03-18T03:23:30.380Z,101185.07
2019-03-18T03:26:01.391Z,101184.23
2019-03-18T03:28:32.518Z,101191.86
2019-03-18T03:31:03.966Z,101186.45
2019-03-18T03:33:35.068Z,101195.41
2019-03-18T03:36:06.142Z,101197.55
2019-03-18T03:38:37.210Z,101200.36
2019-03-18T03:41:08.236Z,101207.14
2019-03-18T03:43:39.276Z,101208.14
2019-03-18T03:46:10.315Z,101209.02
2019-03-18T03:48:41.292Z,101216.65
2019-03-18T03:51:12.467Z,101214.13
2019-03-18T03:53:43.556Z,101216.49
2019-03-18T03:56:14.599Z,101219.17
2019-03-18T03:58:46.118Z,101218.13
2019-03-18T04:01:17.176Z,101222.05
2019-03-18T04:03:48.190Z,101222.45
2019-03-18T04:06:19.254Z,101223.44
2019-03-18T04:08:50.238Z,101225.05
2019-03-18T04:11:21.342Z,101223.23
2019-03-18T04:13:52.416Z,101226.31
2019-03-18T04:16:23.544Z,101225.87
2019-03-18T04:18:54.625Z,101230.17
2019-03-18T04:21:25.728Z,101229.32
2019-03-18T04:23:56.770Z,101238.94
2019-03-18T04:26:28.932Z,101233.49
2019-03-18T04:29:00.156Z,101237.25
2019-03-18T04:31:31.226Z,101242.10
2019-03-18T04:34:02.323Z,101243.83
2019-03-18T04:36:33.406Z,101250.47
2019-03-18T04:39:06.230Z,101244.88
2019-03-18T04:41:37.537Z,101254.04
2019-03-18T04:44:08.712Z,101254.31
2019-03-18T04:46:39.780Z,101261.63
2019-03-18T04:49:10.970Z,101267.28
2019-03-18T04:51:42.115Z,101273.86
2019-03-18T04:54:13.157Z,101279.17
2019-03-18T04:56:44.198Z,101276.22
2019-03-18T04:59:15.381Z,101280.58
2019-03-18T05:01:46.398Z,101290.78
2019-03-18T05:04:17.524Z,101296.06
2019-03-18T05:06:48.571Z,101291.70
2019-03-18T05:09:19.604Z,101290.87
2019-03-18T05:11:50.753Z,101284.24
2019-03-18T05:14:21.796Z,101282.45
2019-03-18T05:16:52.782Z,101291.69
2019-03-18T05:19:23.873Z,101294.92
2019-03-18T05:21:54.868Z,101303.75
2019-03-18T05:24:25.971Z,101308.00
2019-03-18T05:26:57.111Z,101309.13
2019-03-18T05:29:28.339Z,101311.07
2019-03-18T05:31:59.390Z,101325.34
2019-03-18T05:34:30.593Z,101324.20
2019-03-18T05:37:01.759Z,101320.29
2019-03-18T05:39:32.784Z,101327.42
2019-03-18T05:42:04.002Z,101333.75
2019-03-18T05:44:35.727Z,101334.91
2019-03-18T05:47:06.766Z,101339.89
2019-03-18T05:49:37.878Z,101339.61
2019-03-18T05:52:09.040Z,101337.70
2019-03-18T05:54:40.069Z,101340.41
2019-03-18T05:57:11.252Z,101342.49
2019-03-18T05:59:42.497Z,101350.27
2019-03-18T06:02:13.667Z,101358.53
2019-03-18T06:04:44.790Z,101351.81
2019-03-18T06:07:15.816Z,101357.18
2019-03-18T06:09:46.961Z,101361.98
2019-03-18T06:12:18.166Z,101361.03
2019-03-18T06:14:49.355Z,101365.53
2019-03-18T06:17:20.565Z,101366.59
2019-03-18T06:19:52.033Z,101365.05
2019-03-18T06:22:23.212Z,101370.13
2019-03-18T06:24:54.408Z,101368.39
2019-03-18T06:27:26.326Z,101373.34
2019-03-18T06:29:57.562Z,101377.71
2019-03-18T06:32:28.855Z,101390.78
2019-03-18T06:35:00.350Z,101390.47
2019-03-18T06:37:31.449Z,101391.47
2019-03-18T06:40:02.649Z,101391.89
2019-03-18T06:42:33.724Z,101394.45
2019-03-18T06:45:07.448Z,101397.39
2019-03-18T06:47:38.790Z,101406.62
2019-03-18T06:50:11.316Z,101405.39
2019-03-18T06:52:42.421Z,101402.27
2019-03-18T06:55:14.667Z,101398.98
2019-03-18T06:57:45.766Z,101405.20
2019-03-18T07:00:17.412Z,101403.98
2019-03-18T07:02:48.433Z,101403.85
2019-03-18T07:05:20.355Z,101398.70
2019-03-18T07:07:51.485Z,101393.84
2019-03-18T07:10:22.615Z,101395.98
2019-03-18T07:12:53.854Z,101402.39
2019-03-18T07:15:25.754Z,101397.73
2019-03-18T07:17:56.766Z,101398.52
2019-03-18T07:20:27.961Z,101397.43
2019-03-18T07:22:59.253Z,101402.84
2019-03-18T07:25:30.327Z,101407.86
2019-03-18T07:28:01.512Z,101405.23
2019-03-18T07:30:32.586Z,101410.47
2019-03-18T07:33:03.668Z,101414.69
2019-03-18T07:35:34.726Z,101416.63
2019-03-18T07:38:05.917Z,101416.63
2019-03-18T07:40:37.153Z,101425.00
2019-03-18T07:43:08.203Z,101433.14
2019-03-18T07:45:39.389Z,101435.23
2019-03-18T07:48:12.542Z,101422.26
2019-03-18T07:50:43.404Z,101422.26
2019-03-18T07:53:14.506Z,101415.98
2019-03-18T07:55:45.738Z,101429.20
2019-03-18T07:58:16.786Z,101422.71
2019-03-18T08:00:48.225Z,101425.19
2019-03-18T08:03:19.390Z,101425.48
2019-03-18T08:05:50.612Z,101431.87
2019-03-18T08:08:21.817Z,101431.87
2019-03-18T08:10:53.001Z,101432.62
2019-03-18T08:13:24.314Z,101432.62
2019-03-18T08:15:55.537Z,101436.56
2019-03-18T08:18:26.678Z,101448.95
2019-03-18T08:20:57.756Z,101448.95
2019-03-18T08:23:29.097Z,101447.27
2019-03-18T08:26:00.216Z,101452.94
2019-03-18T08:28:31.380Z,101450.73
2019-03-18T08:31:03.728Z,101454.84
2019-03-18T08:33:34.742Z,101455.83
2019-03-18T08:36:05.892Z,101449.69
2019-03-18T08:38:37.036Z,101447.86
2019-03-18T08:41:08.256Z,101453.38
2019-03-18T08:43:39.648Z,101453.66
2019-03-18T08:46:10.800Z,101452.65
2019-03-18T08:48:42.045Z,101453.02
2019-03-18T08:51:13.213Z,101455.36
2019-03-18T08:53:45.460Z,101465.59
2019-03-18T08:56:16.985Z,101464.50
2019-03-18T08:58:48.207Z,101455.88
2019-03-18T09:01:19.250Z,101460.30
2019-03-18T09:03:50.397Z,101464.73
2019-03-18T09:06:21.538Z,101465.70
2019-03-18T09:08:52.791Z,101469.62
2019-03-18T09:11:23.829Z,101475.17
2019-03-18T09:13:55.089Z,101477.50
2019-03-18T09:16:26.374Z,101478.23
2019-03-18T09:19:08.147Z,101476.27
2019-03-18T09:21:30.781Z,101467.76
2019-03-18T09:24:02.636Z,101474.03
2019-03-18T09:26:34.027Z,101465.50
2019-03-18T09:29:05.289Z,101472.82
2019-03-18T09:31:36.506Z,101460.33
2019-03-18T09:34:07.669Z,101467.37
2019-03-18T09:36:38.852Z,101464.16
2019-03-18T09:39:09.992Z,101476.27
2019-03-18T09:41:41.213Z,101467.09
2019-03-18T09:44:12.578Z,101470.27
2019-03-18T09:46:43.675Z,101472.00
2019-03-18T09:49:21.418Z,101462.27
2019-03-18T09:51:47.669Z,101461.41
2019-03-18T09:54:19.325Z,101463.98
2019-03-18T09:56:50.826Z,101467.91
2019-03-18T09:59:22.316Z,101469.14
2019-03-18T10:01:53.384Z,101466.81
2019-03-18T10:04:24.585Z,101468.56
2019-03-18T10:06:55.782Z,101469.55
2019-03-18T10:09:26.884Z,101464.48
2019-03-18T10:11:58.514Z,101462.75
2019-03-18T10:14:29.641Z,101458.83
2019-03-18T10:17:09.576Z,101448.91
2019-03-18T10:19:34.016Z,101458.03
2019-03-18T10:22:05.185Z,101447.45
2019-03-18T10:24:36.366Z,101451.64
2019-03-18T10:27:07.435Z,101437.55
2019-03-18T10:29:38.693Z,101448.45
2019-03-18T10:32:09.710Z,101440.61
2019-03-18T10:34:40.739Z,101451.35
2019-03-18T10:37:12.032Z,101445.42
2019-03-18T10:39:43.285Z,101443.61
2019-03-18T10:42:14.517Z,101450.34
2019-03-18T10:44:45.522Z,101451.30
2019-03-18T10:47:16.548Z,101448.11
2019-03-18T10:49:47.615Z,101451.88
2019-03-18T10:52:18.727Z,101445.56
2019-03-18T10:54:49.858Z,101446.67
2019-03-18T10:57:20.944Z,101442.23
2019-03-18T10:59:51.876Z,101445.94
2019-03-18T11:02:22.917Z,101441.39
2019-03-18T11:04:54.008Z,101446.92
2019-03-18T11:07:24.984Z,101442.34
2019-03-18T11:09:56.000Z,101435.16
2019-03-18T11:12:26.957Z,101439.02
2019-03-18T11:14:58.015Z,101445.29
2019-03-18T11:17:29.206Z,101441.95
2019-03-18T11:20:00.295Z,101438.98
2019-03-18T11:22:31.513Z,101438.07
2019-03-18T11:25:02.634Z,101438.18
2019-03-18T11:27:33.625Z,101444.05
2019-03-18T11:30:09.844Z,101440.45
2019-03-18T11:32:41.795Z,101436.42
2019-03-18T11:35:12.821Z,101440.02
2019-03-18T11:37:43.924Z,101441.23
2019-03-18T11:40:17.139Z,101436.67
2019-03-18T11:42:48.218Z,101429.20
2019-03-18T11:45:19.531Z,101429.20
2019-03-18T11:47:50.827Z,101430.77
2019-03-18T11:50:22.251Z,101428.75
2019-03-18T11:52:53.656Z,101427.80
2019-03-18T11:55:27.016Z,101422.84
2019-03-18T11:57:58.085Z,101412.83
2019-03-18T12:00:29.139Z,101422.77
2019-03-18T12:03:00.335Z,101429.59
2019-03-18T12:05:31.447Z,101426.09
2019-03-18T12:08:02.462Z,101426.75
2019-03-18T12:10:33.474Z,101425.23
2019-03-18T12:13:04.347Z,101415.55
2019-03-18T12:15:36.648Z,101414.03
2019-03-18T12:18:07.921Z,101417.58
2019-03-18T12:20:39.013Z,101419.94
2019-03-18T12:23:09.924Z,101412.88
2019-03-18T12:25:40.969Z,101423.08
2019-03-18T12:28:11.925Z,101417.17
2019-03-18T12:30:42.917Z,101427.36
2019-03-18T12:33:14.016Z,101422.05
2019-03-18T12:35:45.100Z,101417.49
2019-03-18T12:38:16.138Z,101418.85
2019-03-18T12:40:47.980Z,101421.31
2019-03-18T12:43:19.077Z,101425.91
2019-03-18T12:45:50.158Z,101406.11
2019-03-18T12:48:21.388Z,101402.72
2019-03-18T12:50:56.176Z,101413.37
2019-03-18T12:53:25.126Z,101409.73
2019-03-18T12:55:56.309Z,101415.57
2019-03-18T12:58:28.455Z,101418.02
2019-03-18T13:01:11.866Z,101403.30
2019-03-18T13:03:32.265Z,101406.02
2019-03-18T13:06:03.820Z,101408.05
2019-03-18T13:08:34.933Z,101397.02
2019-03-18T13:11:06.006Z,101408.35
2019-03-18T13:13:37.108Z,101408.16
2019-03-18T13:16:08.293Z,101406.11
2019-03-18T13:18:39.502Z,101403.40
2019-03-18T13:21:10.650Z,101403.03
2019-03-18T13:23:41.666Z,101392.64
2019-03-18T13:26:12.981Z,101389.94
2019-03-18T13:28:45.363Z,101390.13
2019-03-18T13:31:16.576Z,101387.20
2019-03-18T13:33:47.737Z,101390.08
2019-03-18T13:36:18.768Z,101384.81
2019-03-18T13:38:49.790Z,101378.80
2019-03-18T13:41:20.955Z,101389.25
2019-03-18T13:43:51.969Z,101389.23
2019-03-18T13:46:23.178Z,101388.36
2019-03-18T13:48:54.276Z,101379.37
2019-03-18T13:51:25.350Z,101383.80
2019-03-18T13:53:56.477Z,101382.76
2019-03-18T13:56:28.189Z,101385.05
2019-03-18T13:58:59.295Z,101377.32
2019-03-18T14:01:30.508Z,101369.29
2019-03-18T14:04:01.597Z,101383.33
2019-03-18T14:06:33.761Z,101383.75
2019-03-18T14:09:06.882Z,101387.05
2019-03-18T14:11:38.024Z,101376.91
2019-03-18T14:14:09.167Z,101382.70
2019-03-18T14:16:40.211Z,101382.81
2019-03-18T14:19:11.752Z,101372.47
2019-03-18T14:21:43.237Z,101369.96
2019-03-18T14:24:14.579Z,101374.98
2019-03-18T14:26:45.935Z,101378.80
2019-03-18T14:29:17.172Z,101380.14
2019-03-18T14:31:48.496Z,101378.95
2019-03-18T14:34:19.614Z,101375.92
2019-03-18T14:36:51.882Z,101374.81
2019-03-18T14:39:22.991Z,101375.51
2019-03-18T14:41:54.186Z,101380.83
2019-03-18T14:44:25.289Z,101377.48
2019-03-18T14:46:56.337Z,101373.36
2019-03-18T14:49:27.463Z,101376.02
2019-03-18T14:51:58.584Z,101376.08
2019-03-18T14:54:29.612Z,101376.17
2019-03-18T14:57:00.694Z,101376.39
2019-03-18T14:59:32.330Z,101387.83
2019-03-18T15:02:03.420Z,101388.60
2019-03-18T15:04:34.531Z,101398.69
2019-03-18T15:07:05.577Z,101391.25
2019-03-18T15:09:36.718Z,101400.65
2019-03-18T15:12:07.878Z,101400.22
2019-03-18T15:14:39.010Z,101402.39
2019-03-18T15:17:10.166Z,101403.52
2019-03-18T15:19:41.161Z,101404.19
2019-03-18T15:22:12.349Z,101411.52
2019-03-18T15:24:43.554Z,101413.61
2019-03-18T15:27:14.726Z,101418.41
2019-03-18T15:29:45.689Z,101416.37
2019-03-18T15:32:16.607Z,101417.42
2019-03-18T15:34:47.616Z,101417.93
2019-03-18T15:37:18.594Z,101420.58
2019-03-18T15:39:49.645Z,101426.92
2019-03-18T15:42:20.740Z,101424.73
2019-03-18T15:44:51.727Z,101425.72
2019-03-18T15:47:22.761Z,101423.55
2019-03-18T15:49:53.911Z,101433.92
2019-03-18T15:52:25.127Z,101431.76
2019-03-18T15:54:56.192Z,101425.00
2019-03-18T15:57:29.929Z,101429.52
2019-03-18T15:59:59.716Z,101429.68
2019-03-18T16:02:30.641Z,101437.66
2019-03-18T16:05:01.600Z,101436.85
2019-03-18T16:07:32.769Z,101437.70
2019-03-18T16:10:05.017Z,101440.92
2019-03-18T16:12:35.981Z,101443.41
2019-03-18T16:15:09.626Z,101454.52
2019-03-18T16:17:41.651Z,101451.05
2019-03-18T16:20:20.657Z,101452.55
2019-03-18T16:22:51.616Z,101456.22
2019-03-18T16:25:22.710Z,101459.08
2019-03-18T16:27:53.664Z,101460.55
2019-03-18T16:30:24.593Z,101461.42
2019-03-18T16:32:55.652Z,101461.41
2019-03-18T16:35:26.647Z,101469.78
2019-03-18T16:37:58.135Z,101468.66
2019-03-18T16:40:29.260Z,101475.80
2019-03-18T16:43:00.355Z,101477.67
2019-03-18T16:45:31.489Z,101484.16
2019-03-18T16:48:02.718Z,101480.09
2019-03-18T16:50:33.914Z,101481.72
2019-03-18T16:53:05.136Z,101487.72
2019-03-18T16:55:36.186Z,101486.86
2019-03-18T16:58:07.223Z,101494.00
2019-03-18T17:00:38.217Z,101484.30
2019-03-18T17:03:09.492Z,101496.61
2019-03-18T17:05:40.449Z,101498.83
2019-03-18T17:08:11.454Z,101496.11
2019-03-18T17:10:42.427Z,101500.67
2019-03-18T17:13:13.582Z,101503.74
2019-03-18T17:15:44.577Z,101507.82
2019-03-18T17:18:17.986Z,101502.73
2019-03-18T17:20:48.712Z,101508.65
2019-03-18T17:23:20.981Z,101510.36
2019-03-18T17:25:52.323Z,101517.48
2019-03-18T17:28:23.369Z,101512.64
2019-03-18T17:30:54.523Z,101514.50
2019-03-18T17:33:25.683Z,101524.63
2019-03-18T17:35:56.734Z,101518.35
2019-03-18T17:38:28.010Z,101517.23
2019-03-18T17:40:59.000Z,101515.30
2019-03-18T17:43:30.336Z,101524.59
2019-03-18T17:46:01.471Z,101523.98
2019-03-18T17:48:32.652Z,101527.13
2019-03-18T17:51:03.887Z,101523.23
2019-03-18T17:53:35.003Z,101529.27
2019-03-18T17:56:06.288Z,101532.92
2019-03-18T17:58:37.507Z,101537.97
2019-03-18T18:01:08.642Z,101543.50
2019-03-18T18:03:39.699Z,101543.36
2019-03-18T18:06:10.788Z,101540.85
2019-03-18T18:08:42.091Z,101543.61
2019-03-18T18:11:13.294Z,101543.11
2019-03-18T18:13:44.460Z,101540.35
2019-03-18T18:16:15.581Z,101545.98
2019-03-18T18:18:46.797Z,101553.32
2019-03-18T18:21:17.941Z,101558.80
2019-03-18T18:23:49.243Z,101561.56
2019-03-18T18:26:20.294Z,101558.33
2019-03-18T18:28:51.336Z,101568.08
2019-03-18T18:31:22.319Z,101576.66
2019-03-18T18:33:53.788Z,101575.66
2019-03-18T18:36:25.424Z,101583.67
2019-03-18T18:38:56.633Z,101578.67
2019-03-18T18:41:27.851Z,101575.91
2019-03-18T18:43:59.162Z,101584.46
2019-03-18T18:46:30.208Z,101589.20
2019-03-18T18:49:02.145Z,101593.09
2019-03-18T18:51:33.269Z,101587.75
2019-03-18T18:54:04.675Z,101590.92
2019-03-18T18:56:35.771Z,101580.39
2019-03-18T18:59:06.956Z,101586.17
2019-03-18T19:01:38.053Z,101582.75
2019-03-18T19:04:09.194Z,101585.13
2019-03-18T19:06:40.218Z,101587.29
2019-03-18T19:09:11.267Z,101593.84
2019-03-18T19:11:42.356Z,101596.73
2019-03-18T19:14:13.428Z,101595.81
2019-03-18T19:16:44.493Z,101607.40
2019-03-18T19:19:15.633Z,101593.34
2019-03-18T19:21:47.083Z,101603.98
2019-03-18T19:24:18.392Z,101596.97
2019-03-18T19:26:49.468Z,101605.27
2019-03-18T19:29:20.637Z,101597.74
2019-03-18T19:31:51.819Z,101603.41
2019-03-18T19:34:22.933Z,101587.09
2019-03-18T19:36:54.170Z,101593.52
2019-03-18T19:39:25.184Z,101597.31
2019-03-18T19:41:56.183Z,101598.98
2019-03-18T19:44:27.228Z,101592.84
2019-03-18T19:46:58.216Z,101598.57
2019-03-18T19:49:29.272Z,101601.12
2019-03-18T19:52:00.312Z,101591.32
2019-03-18T19:54:31.454Z,101598.50
2019-03-18T19:57:03.621Z,101596.97
2019-03-18T19:59:34.669Z,101592.21
2019-03-18T20:02:05.706Z,101592.21
2019-03-18T20:04:36.676Z,101578.20
2019-03-18T20:07:07.742Z,101592.80
2019-03-18T20:09:38.882Z,101592.27
2019-03-18T20:12:09.992Z,101600.55
2019-03-18T20:14:41.175Z,101600.55
2019-03-18T20:17:12.291Z,101595.67
2019-03-18T20:19:43.459Z,101594.70
2019-03-18T20:22:14.557Z,101603.69
2019-03-18T20:24:45.692Z,101603.69
2019-03-18T20:27:16.707Z,101608.12
2019-03-18T20:29:47.808Z,101598.65
2019-03-18T20:32:18.815Z,101598.65
2019-03-18T20:34:49.871Z,101613.86
2019-03-18T20:37:20.890Z,101613.20
2019-03-18T20:39:51.957Z,101609.55
2019-03-18T20:42:23.097Z,101605.44
2019-03-18T20:44:54.157Z,101609.47
2019-03-18T20:47:25.283Z,101609.47
2019-03-18T20:49:57.494Z,101611.86
2019-03-18T20:52:29.005Z,101611.98
2019-03-18T20:55:00.160Z,101603.35
2019-03-18T20:57:31.569Z,101616.44
2019-03-18T21:00:03.275Z,101616.82
2019-03-18T21:02:35.831Z,101614.70
2019-03-18T21:05:09.070Z,101616.27
2019-03-18T21:07:40.257Z,101608.95
2019-03-18T21:10:16.408Z,101600.89
2019-03-18T21:12:47.513Z,101600.89
2019-03-18T21:15:18.861Z,101613.12
2019-03-18T21:17:49.973Z,101621.68
2019-03-18T21:20:23.420Z,101623.05
2019-03-18T21:22:53.909Z,101623.05
2019-03-18T21:25:24.829Z,101624.20
2019-03-18T21:27:56.290Z,101637.08
2019-03-18T21:30:27.362Z,101634.11
2019-03-18T21:32:58.492Z,101638.25
2019-03-18T21:35:29.529Z,101635.25
2019-03-18T21:38:00.820Z,101639.97
2019-03-18T21:40:31.899Z,101638.16
2019-03-18T21:43:02.981Z,101646.41
2019-03-18T21:45:34.084Z,101639.87
2019-03-18T21:48:05.133Z,101642.95
2019-03-18T21:50:36.175Z,101645.36
2019-03-18T21:53:07.523Z,101645.92
2019-03-18T21:55:38.603Z,101644.08
2019-03-18T21:58:10.092Z,101640.45
2019-03-18T22:00:41.191Z,101640.45
2019-03-18T22:03:12.445Z,101644.73
2019-03-18T22:05:43.550Z,101647.61
2019-03-18T22:08:14.836Z,101647.61
2019-03-18T22:10:45.909Z,101645.70
2019-03-18T22:13:17.004Z,101651.75
2019-03-18T22:15:49.276Z,101642.05
2019-03-18T22:18:22.973Z,101649.80
2019-03-18T22:20:56.597Z,101654.72
2019-03-18T22:23:29.839Z,101647.78
2019-03-18T22:26:03.253Z,101644.70
2019-03-18T22:28:35.236Z,101638.19
2019-03-18T22:31:06.742Z,101637.41
2019-03-18T22:33:37.803Z,101640.38
2019-03-18T22:36:08.943Z,101642.68
2019-03-18T22:38:39.932Z,101649.75
2019-03-18T22:41:11.029Z,101655.45
2019-03-18T22:43:42.006Z,101647.39
2019-03-18T22:46:13.011Z,101648.41
2019-03-18T22:48:44.180Z,101651.31
2019-03-18T22:51:15.236Z,101656.64
2019-03-18T22:53:46.346Z,101650.23
2019-03-18T22:56:17.548Z,101648.29
2019-03-18T22:58:48.631Z,101650.20
2019-03-18T23:01:19.760Z,101646.84
2019-03-18T23:03:50.861Z,101640.96
2019-03-18T23:06:21.956Z,101640.96
2019-03-18T23:08:54.162Z,101638.66
2019-03-18T23:11:25.149Z,101643.29
2019-03-18T23:13:56.303Z,101651.15
2019-03-18T23:16:27.288Z,101648.72
2019-03-18T23:18:59.531Z,101642.00
2019-03-18T23:21:30.525Z,101643.23
2019-03-18T23:24:01.567Z,101642.66
2019-03-18T23:26:32.790Z,101640.20
2019-03-18T23:29:03.857Z,101642.98
2019-03-18T23:31:34.989Z,101647.70
2019-03-18T23:34:06.181Z,101643.33
2019-03-18T23:36:37.315Z,101648.70
2019-03-18T23:39:08.733Z,101641.86
2019-03-18T23:41:39.909Z,101648.80
2019-03-18T23:44:11.172Z,101642.72
2019-03-18T23:46:42.222Z,101653.92
2019-03-18T23:49:13.390Z,101644.13
2019-03-18T23:51:44.565Z,101645.20
2019-03-18T23:54:15.751Z,101634.06
2019-03-18T23:56:46.765Z,101629.97
2019-03-18T23:59:17.853Z,101625.38
